createdAt,value
2022-08-24T00:00:21.230Z,100922.72
2022-08-24T00:05:20.711Z,100921.66
2022-08-24T00:10:19.910Z,100938.53
2022-08-24T00:15:17.725Z,100935.41
2022-08-24T00:20:14.374Z,100947.09
2022-08-24T00:25:12.451Z,100942.41
2022-08-24T00:30:10.585Z,100950.66
2022-08-24T00:35:11.912Z,100939.59
2022-08-24T00:40:11.058Z,100943.03
2022-08-24T00:45:09.211Z,100916.19
2022-08-24T00:50:08.340Z,100908.66
2022-08-24T00:55:07.731Z,100905.13
2022-08-24T01:00:06.965Z,100890.16
2022-08-24T01:05:05.692Z,100881.19
2022-08-24T01:10:04.750Z,100879.88
2022-08-24T01:15:03.738Z,100867.97
2022-08-24T01:20:03.172Z,100877.19
2022-08-24T01:25:00.938Z,100877.44
2022-08-24T01:29:58.671Z,100881.97
2022-08-24T01:34:55.860Z,100868.31
2022-08-24T01:39:54.082Z,100873.34
2022-08-24T01:44:52.388Z,100870.31
2022-08-24T01:49:49.345Z,100863.56
2022-08-24T01:54:49.958Z,100873.59
2022-08-24T01:59:49.096Z,100880.72
2022-08-24T02:04:47.181Z,100883.91
2022-08-24T02:09:43.978Z,100887.97
2022-08-24T02:14:40.691Z,100892.94
2022-08-24T02:19:37.767Z,100892.84
2022-08-24T02:24:36.593Z,100885.50
2022-08-24T02:29:33.558Z,100886.22
2022-08-24T02:34:30.240Z,100890.16
2022-08-24T02:39:27.648Z,100900.88
2022-08-24T02:44:26.202Z,100898.06
2022-08-24T02:49:23.710Z,100890.16
2022-08-24T02:54:20.953Z,100884.94
2022-08-24T02:59:20.661Z,100883.56
2022-08-24T03:04:19.408Z,100886.22
2022-08-24T03:09:16.420Z,100891.91
2022-08-24T03:14:13.844Z,100892.56
2022-08-24T03:19:10.864Z,100899.63
2022-08-24T03:24:09.661Z,100910.56
2022-08-24T03:29:06.470Z,100911.16
2022-08-24T03:34:05.039Z,100913.31
2022-08-24T03:39:01.873Z,100927.72
2022-08-24T03:43:59.464Z,100927.16
2022-08-24T03:48:56.891Z,100935.09
2022-08-24T03:53:53.984Z,100930.75
2022-08-24T03:58:54.434Z,100926.72
2022-08-24T04:03:53.650Z,100928.41
2022-08-24T04:08:52.994Z,100927.72
2022-08-24T04:13:51.703Z,100931.25
2022-08-24T04:18:49.144Z,100937.03
2022-08-24T04:23:47.976Z,100936.91
2022-08-24T04:28:47.361Z,100940.31
2022-08-24T04:33:46.683Z,100943.44
2022-08-24T04:38:44.150Z,100950.47
2022-08-24T04:44:04.830Z,100941.31
2022-08-24T04:49:01.733Z,100952.31
2022-08-24T04:53:58.829Z,100941.31
2022-08-24T04:58:55.700Z,100958.09
2022-08-24T05:03:54.158Z,100962.91
2022-08-24T05:08:51.612Z,100961.50
2022-08-24T05:13:51.649Z,100972.13
2022-08-24T05:18:48.610Z,100967.72
2022-08-24T05:23:48.380Z,100969.41
2022-08-24T05:28:47.754Z,100965.31
2022-08-24T05:33:45.313Z,100952.28
2022-08-24T05:38:42.194Z,100962.06
2022-08-24T05:43:41.820Z,100965.78
2022-08-24T05:48:39.115Z,100963.78
2022-08-24T05:53:51.232Z,100958.69
2022-08-24T05:58:50.972Z,100963.31
2022-08-24T06:03:49.113Z,100954.81
2022-08-24T06:08:47.573Z,100940.25
2022-08-24T06:13:45.080Z,100958.91
2022-08-24T06:18:48.007Z,100973.38
2022-08-24T06:23:47.585Z,100972.97
2022-08-24T06:28:46.624Z,100984.69
2022-08-24T06:33:43.813Z,100989.06
2022-08-24T06:38:41.458Z,100979.84
2022-08-24T06:43:44.039Z,100983.91
2022-08-24T06:48:42.164Z,100979.31
2022-08-24T06:53:43.476Z,100977.28
2022-08-24T06:58:41.224Z,100974.22
2022-08-24T07:03:51.975Z,100958.75
2022-08-24T07:09:26.566Z,100975.31
2022-08-24T07:14:24.370Z,100973.66
2022-08-24T07:19:22.097Z,100964.97
2022-08-24T07:24:19.150Z,100968.09
2022-08-24T07:29:45.865Z,100958.19
2022-08-24T07:34:36.928Z,100955.22
2022-08-24T07:39:34.508Z,100954.59
2022-08-24T07:44:32.375Z,100954.59
2022-08-24T07:49:36.429Z,100947.91
2022-08-24T07:54:35.593Z,100945.94
2022-08-24T07:59:33.937Z,100950.28
2022-08-24T08:04:33.117Z,100960.38
2022-08-24T08:09:33.539Z,100950.75
2022-08-24T08:14:33.508Z,100956.09
2022-08-24T08:19:32.546Z,100957.53
2022-08-24T08:24:29.604Z,100958.31
2022-08-24T08:29:27.179Z,100960.63
2022-08-24T08:34:26.733Z,100965.78
2022-08-24T08:39:27.181Z,100960.16
2022-08-24T08:44:35.794Z,100964.97
2022-08-24T08:49:54.135Z,100974.91
2022-08-24T08:54:58.653Z,100971.72
2022-08-24T09:00:06.673Z,100968.28
2022-08-24T09:05:23.900Z,100954.81
2022-08-24T09:10:29.545Z,100964.31
2022-08-24T09:15:34.474Z,100957.75
2022-08-24T09:20:46.104Z,100952.94
2022-08-24T09:25:46.925Z,100948.28
2022-08-24T09:30:57.095Z,100947.03
2022-08-24T09:36:04.052Z,100945.47
2022-08-24T09:41:18.105Z,100934.75
2022-08-24T09:46:27.505Z,100937.28
2022-08-24T09:51:43.376Z,100944.41
2022-08-24T09:57:11.607Z,100944.91
2022-08-24T10:02:18.038Z,100945.69
2022-08-24T10:07:18.683Z,100923.44
2022-08-24T10:12:22.875Z,100928.03
2022-08-24T10:17:23.119Z,100929.84
2022-08-24T10:22:28.169Z,100928.69
2022-08-24T10:27:36.936Z,100914.44
2022-08-24T10:32:43.717Z,100913.94
2022-08-24T10:38:14.674Z,100914.69
2022-08-24T10:43:35.960Z,100916.38
2022-08-24T10:48:46.807Z,100909.66
2022-08-24T10:53:48.049Z,100898.56
2022-08-24T10:58:50.877Z,100892.31
2022-08-24T11:03:50.175Z,100873.38
2022-08-24T11:08:58.490Z,100866.59
2022-08-24T11:13:58.626Z,100853.25
2022-08-24T11:18:56.868Z,100848.19
2022-08-24T11:23:53.750Z,100848.50
2022-08-24T11:28:52.601Z,100832.44
2022-08-24T11:33:52.529Z,100829.91
2022-08-24T11:39:10.004Z,100839.16
2022-08-24T11:44:10.878Z,100824.56
2022-08-24T11:49:14.446Z,100811.66
2022-08-24T11:54:19.112Z,100809.50
2022-08-24T11:59:19.890Z,100807.91
2022-08-24T12:04:47.460Z,100809.03
2022-08-24T12:10:09.701Z,100801.00
2022-08-24T12:15:21.453Z,100798.94
2022-08-24T12:20:29.805Z,100796.50
2022-08-24T12:25:47.973Z,100798.84
2022-08-24T12:30:45.465Z,100797.88
2022-08-24T12:35:53.502Z,100794.47
2022-08-24T12:40:54.864Z,100792.66
2022-08-24T12:45:59.505Z,100794.59
2022-08-24T12:51:07.887Z,100799.41
2022-08-24T12:56:20.726Z,100809.91
2022-08-24T13:01:18.521Z,100810.38
2022-08-24T13:06:27.696Z,100815.16
2022-08-24T13:11:32.009Z,100814.78
2022-08-24T13:16:50.069Z,100813.94
2022-08-24T13:21:52.236Z,100807.84
2022-08-24T13:26:51.777Z,100803.94
2022-08-24T13:31:50.892Z,100799.00
2022-08-24T13:36:53.922Z,100794.13
2022-08-24T13:42:00.915Z,100806.13
2022-08-24T13:47:03.151Z,100792.97
2022-08-24T13:52:07.483Z,100788.44
2022-08-24T13:57:20.850Z,100788.00
2022-08-24T14:02:27.149Z,100783.31
2022-08-24T14:07:25.355Z,100775.47
2022-08-24T14:12:27.574Z,100769.63
2022-08-24T14:17:47.284Z,100758.28
2022-08-24T14:22:52.538Z,100757.97
2022-08-24T14:27:51.495Z,100746.94
2022-08-24T14:33:03.808Z,100738.03
2022-08-24T14:38:24.503Z,100747.44
2022-08-24T14:43:28.452Z,100740.97
2022-08-24T14:48:32.900Z,100738.13
2022-08-24T14:53:41.294Z,100723.56
2022-08-24T14:58:43.308Z,100717.56
2022-08-24T15:03:50.103Z,100709.19
2022-08-24T15:08:47.540Z,100713.47
2022-08-24T15:13:47.320Z,100704.59
2022-08-24T15:18:47.837Z,100707.63
2022-08-24T15:23:50.532Z,100711.16
2022-08-24T15:28:50.183Z,100716.38
2022-08-24T15:33:54.376Z,100715.34
2022-08-24T15:38:54.467Z,100709.56
2022-08-24T15:43:58.622Z,100700.59
2022-08-24T15:49:01.398Z,100682.81
2022-08-24T15:53:58.550Z,100690.56
2022-08-24T15:59:06.365Z,100686.66
2022-08-24T16:04:04.601Z,100702.19
2022-08-24T16:09:02.891Z,100698.34
2022-08-24T16:14:01.346Z,100690.09
2022-08-24T16:19:02.109Z,100707.88
2022-08-24T16:24:07.191Z,100708.16
2022-08-24T16:29:05.193Z,100723.00
2022-08-24T16:34:09.424Z,100713.00
2022-08-24T16:39:06.315Z,100733.84
2022-08-24T16:44:03.651Z,100733.88
2022-08-24T16:49:01.236Z,100736.84
2022-08-24T16:54:01.162Z,100739.91
2022-08-24T16:58:58.673Z,100744.66
2022-08-24T17:03:55.511Z,100750.06
2022-08-24T17:08:53.080Z,100750.19
2022-08-24T17:13:50.701Z,100751.94
2022-08-24T17:18:47.925Z,100754.81
2022-08-24T17:23:45.637Z,100756.97
2022-08-24T17:28:48.236Z,100760.69
2022-08-24T17:33:45.268Z,100754.28
2022-08-24T17:38:45.238Z,100757.66
2022-08-24T17:43:42.119Z,100768.44
2022-08-24T17:48:40.291Z,100772.66
2022-08-24T17:53:37.210Z,100776.97
2022-08-24T17:58:55.300Z,100794.53
2022-08-24T18:03:54.195Z,100796.03
2022-08-24T18:08:51.421Z,100797.88
2022-08-24T18:13:48.220Z,100805.63
2022-08-24T18:18:45.192Z,100819.00
2022-08-24T18:23:43.788Z,100820.53
2022-08-24T18:28:42.305Z,100815.13
2022-08-24T18:33:39.453Z,100808.31
2022-08-24T18:38:36.512Z,100829.66
2022-08-24T18:43:34.518Z,100828.50
2022-08-24T18:48:31.971Z,100828.97
2022-08-24T18:53:29.199Z,100830.66
2022-08-24T18:58:26.211Z,100841.31
2022-08-24T19:03:26.599Z,100848.22
2022-08-24T19:08:23.514Z,100846.38
2022-08-24T19:13:20.432Z,100849.94
2022-08-24T19:18:19.949Z,100846.00
2022-08-24T19:23:20.246Z,100841.78
2022-08-24T19:28:17.348Z,100853.41
2022-08-24T19:33:16.975Z,100856.81
2022-08-24T19:38:13.784Z,100861.81
2022-08-24T19:43:11.258Z,100854.38
2022-08-24T19:48:08.064Z,100856.63
2022-08-24T19:53:05.410Z,100844.97
2022-08-24T19:58:05.819Z,100844.16
2022-08-24T20:03:05.735Z,100846.56
2022-08-24T20:08:03.380Z,100830.66
2022-08-24T20:13:00.680Z,100827.44
2022-08-24T20:17:57.749Z,100839.13
2022-08-24T20:22:55.247Z,100843.50
2022-08-24T20:28:02.204Z,100841.63
2022-08-24T20:33:13.642Z,100852.97
2022-08-24T20:38:12.639Z,100845.22
2022-08-24T20:43:09.344Z,100849.25
2022-08-24T20:48:11.401Z,100846.53
2022-08-24T20:53:10.877Z,100848.19
2022-08-24T20:58:09.022Z,100854.78
2022-08-24T21:03:05.809Z,100838.25
2022-08-24T21:08:02.811Z,100843.50
2022-08-24T21:12:59.693Z,100823.22
2022-08-24T21:18:01.010Z,100834.34
2022-08-24T21:22:57.873Z,100848.50
2022-08-24T21:27:54.831Z,100847.50
2022-08-24T21:33:09.821Z,100845.97
2022-08-24T21:38:08.761Z,100830.06
2022-08-24T21:43:09.292Z,100830.09
2022-08-24T21:48:14.004Z,100829.59
2022-08-24T21:53:11.340Z,100819.78
2022-08-24T21:58:10.100Z,100820.16
2022-08-24T22:03:08.032Z,100813.75
2022-08-24T22:08:04.954Z,100808.41
2022-08-24T22:13:04.562Z,100801.81
2022-08-24T22:18:01.501Z,100789.63
2022-08-24T22:22:58.399Z,100791.66
2022-08-24T22:27:55.243Z,100785.28
2022-08-24T22:32:52.649Z,100787.47
2022-08-24T22:37:49.295Z,100774.13
2022-08-24T22:42:45.922Z,100767.88
2022-08-24T22:47:42.721Z,100760.97
2022-08-24T22:52:40.252Z,100762.47
2022-08-24T22:57:37.010Z,100764.22
2022-08-24T23:02:34.853Z,100752.78
2022-08-24T23:07:31.567Z,100749.81
2022-08-24T23:12:28.855Z,100756.78
2022-08-24T23:17:25.505Z,100745.44
2022-08-24T23:22:22.267Z,100747.69
2022-08-24T23:27:20.843Z,100751.09
2022-08-24T23:32:18.427Z,100739.31
2022-08-24T23:37:15.302Z,100740.50
2022-08-24T23:42:12.076Z,100733.38
2022-08-24T23:47:09.162Z,100729.00
2022-08-24T23:52:06.563Z,100736.81
2022-08-24T23:57:08.015Z,100741.19
